Time;durP1;ratioP1;P1;durP2;ratioP2;P2;SDS_P1;SDS_P2;PMS_P1;PMS_P2;Temp;Humidity;BMP_temperature;BMP_pressure;BME280_temperature;BME280_humidity;BME280_pressure;Samples;Min_cycle;Max_cycle;Signal;HPM_P1;HPM_P2
2023/05/09 00:01:42;;;;;;;91.10;41.10;;;14.70;99.90;;;;;;5035270;28;20055;-84
2023/05/09 00:04:11;;;;;;;97.40;40.58;;;14.70;99.90;;;;;;5016550;28;20041;-83
2023/05/09 00:06:36;;;;;;;96.15;40.95;;;14.70;99.90;;;;;;5021057;28;20111;-84
2023/05/09 00:09:03;;;;;;;94.63;40.75;;;14.70;99.90;;;;;;5033212;28;20048;-84
2023/05/09 00:11:29;;;;;;;85.88;37.65;;;14.70;99.90;;;;;;5018776;28;20041;-84
2023/05/09 00:13:56;;;;;;;98.05;39.70;;;14.70;99.90;;;;;;5021171;28;20041;-84
2023/05/09 00:16:22;;;;;;;75.05;35.40;;;14.70;99.90;;;;;;5031950;28;21444;-84
2023/05/09 00:18:49;;;;;;;71.13;36.38;;;14.70;99.90;;;;;;5031550;28;20045;-84
2023/05/09 00:21:15;;;;;;;84.20;37.95;;;14.80;99.90;;;;;;5018411;28;20404;-84
2023/05/09 00:23:41;;;;;;;85.82;37.13;;;14.80;99.90;;;;;;5017487;28;20099;-84
2023/05/09 00:26:06;;;;;;;90.00;37.47;;;14.80;99.90;;;;;;5019940;28;20344;-84
2023/05/09 00:28:32;;;;;;;74.97;36.05;;;14.80;99.90;;;;;;5027958;28;20044;-84
2023/05/09 00:30:58;;;;;;;91.10;37.88;;;14.80;99.90;;;;;;5020854;28;20036;-84
2023/05/09 00:33:26;;;;;;;106.53;41.30;;;14.80;99.90;;;;;;5021341;28;20087;-84
2023/05/09 00:35:53;;;;;;;77.18;36.90;;;14.90;99.90;;;;;;5021841;28;20095;-84
2023/05/09 00:38:19;;;;;;;75.95;37.05;;;14.80;99.90;;;;;;5021970;28;20139;-84
2023/05/09 00:40:44;;;;;;;69.75;35.45;;;14.80;99.90;;;;;;5015846;28;20064;-84
2023/05/09 00:43:10;;;;;;;70.90;34.10;;;14.80;99.90;;;;;;5015771;28;20041;-84
2023/05/09 00:45:36;;;;;;;67.63;34.97;;;14.80;99.90;;;;;;5031741;28;20048;-84
2023/05/09 00:48:05;;;;;;;69.57;35.17;;;14.80;99.90;;;;;;5031348;28;20045;-84
2023/05/09 00:50:33;;;;;;;74.45;35.92;;;14.80;99.90;;;;;;5032536;28;20059;-84
2023/05/09 00:52:59;;;;;;;67.57;34.35;;;14.80;99.90;;;;;;5021884;28;20044;-84
2023/05/09 00:55:26;;;;;;;63.53;32.13;;;14.80;99.90;;;;;;5023001;28;20381;-84
2023/05/09 00:57:51;;;;;;;75.22;34.45;;;14.90;99.90;;;;;;5019760;28;20045;-84
2023/05/09 01:00:17;;;;;;;68.38;34.80;;;14.90;99.90;;;;;;5030753;28;20047;-84
2023/05/09 01:02:52;;;;;;;72.63;35.15;;;14.90;99.90;;;;;;5032317;28;20458;-84
2023/05/09 01:05:18;;;;;;;71.82;35.33;;;14.90;99.90;;;;;;5021391;28;20041;-84
2023/05/09 01:08:09;;;;;;;82.05;36.92;;;14.90;99.90;;;;;;5014530;28;20043;-84
2023/05/09 01:10:45;;;;;;;79.20;36.22;;;14.80;99.90;;;;;;5017210;28;20558;-84
2023/05/09 01:14:03;;;;;;;80.63;36.83;;;14.80;99.90;;;;;;5031832;28;20041;-84
2023/05/09 01:16:42;;;;;;;77.90;34.58;;;14.80;99.90;;;;;;4944460;28;20149;-84
2023/05/09 01:19:32;;;;;;;73.72;36.92;;;14.70;99.90;;;;;;5011857;28;20063;-84
2023/05/09 01:22:00;;;;;;;60.92;31.73;;;14.70;99.90;;;;;;5033638;28;20071;-84
2023/05/09 01:25:01;;;;;;;72.63;35.75;;;14.70;99.90;;;;;;5032033;28;20034;-84
2023/05/09 01:27:57;;;;;;;62.95;33.78;;;14.70;99.90;;;;;;5018301;28;20129;-84
2023/05/09 01:30:24;;;;;;;65.00;33.67;;;14.70;99.90;;;;;;5020369;28;20056;-84
2023/05/09 01:32:52;;;;;;;80.82;37.90;;;14.70;99.90;;;;;;5021510;28;20087;-86
2023/05/09 01:35:25;;;;;;;49.72;28.92;;;14.70;99.90;;;;;;5036318;28;20127;-84
2023/05/09 01:37:51;;;;;;;66.57;32.53;;;14.60;99.90;;;;;;5019309;28;20437;-84
2023/05/09 01:40:20;;;;;;;63.15;32.97;;;14.60;99.90;;;;;;5031484;28;20054;-84
2023/05/09 01:42:58;;;;;;;61.83;33.97;;;14.60;99.90;;;;;;5035196;28;20120;-84
2023/05/09 01:45:25;;;;;;;76.03;36.20;;;14.60;99.90;;;;;;5035446;28;20116;-84
2023/05/09 01:47:52;;;;;;;62.35;31.67;;;14.60;99.90;;;;;;5037314;28;20055;-84
2023/05/09 01:50:19;;;;;;;75.32;35.58;;;14.60;99.90;;;;;;5023277;28;20103;-85
2023/05/09 01:52:48;;;;;;;65.18;34.83;;;14.50;99.90;;;;;;5024183;28;20041;-84
2023/05/09 01:55:15;;;;;;;66.40;34.53;;;14.60;99.90;;;;;;5035927;28;20080;-84
2023/05/09 01:57:43;;;;;;;77.45;36.85;;;14.50;99.90;;;;;;5051497;28;20036;-84
2023/05/09 02:00:12;;;;;;;75.68;36.70;;;14.50;99.90;;;;;;5019532;28;20565;-84
2023/05/09 02:02:38;;;;;;;63.00;34.28;;;14.50;99.90;;;;;;5034860;28;20230;-84
2023/05/09 02:05:06;;;;;;;71.90;36.20;;;14.60;99.90;;;;;;5034454;28;20051;-84
2023/05/09 02:07:32;;;;;;;67.13;34.20;;;14.60;99.90;;;;;;5037222;28;20048;-84
2023/05/09 02:10:01;;;;;;;69.40;36.80;;;14.60;99.90;;;;;;5016739;28;20049;-84
2023/05/09 02:12:26;;;;;;;70.05;36.90;;;14.60;99.90;;;;;;5035056;28;20098;-84
2023/05/09 02:14:52;;;;;;;83.97;38.88;;;14.60;99.90;;;;;;5016830;28;20036;-84
2023/05/09 02:17:18;;;;;;;74.07;36.95;;;14.70;99.90;;;;;;5021796;28;20128;-84
2023/05/09 02:19:44;;;;;;;58.72;32.22;;;14.60;99.90;;;;;;5023906;28;20163;-85
2023/05/09 02:22:11;;;;;;;60.63;32.92;;;14.60;99.90;;;;;;5017576;28;20044;-85
2023/05/09 02:24:37;;;;;;;61.08;31.90;;;14.60;99.90;;;;;;5020682;28;20051;-85
2023/05/09 02:27:07;;;;;;;79.32;35.85;;;14.60;99.90;;;;;;5026038;28;20049;-85
2023/05/09 02:29:48;;;;;;;59.58;33.33;;;14.60;99.90;;;;;;5024177;28;20045;-85
2023/05/09 02:32:25;;;;;;;60.20;33.03;;;14.60;99.90;;;;;;5051375;28;20032;-85
2023/05/09 02:34:53;;;;;;;66.78;34.50;;;14.60;99.90;;;;;;5034775;28;20095;-84
2023/05/09 02:37:20;;;;;;;59.25;32.13;;;14.60;99.90;;;;;;5021607;28;20132;-85
2023/05/09 02:39:46;;;;;;;48.90;28.10;;;14.60;99.90;;;;;;5019776;28;20041;-85
2023/05/09 02:42:14;;;;;;;50.83;29.83;;;14.60;99.90;;;;;;5024254;28;20411;-85
2023/05/09 02:44:40;;;;;;;68.30;34.00;;;14.60;99.90;;;;;;5023718;28;20056;-85
2023/05/09 02:47:06;;;;;;;68.82;35.72;;;14.60;99.90;;;;;;5024049;28;20036;-84
2023/05/09 02:49:33;;;;;;;57.03;32.70;;;14.70;99.90;;;;;;5016910;28;20103;-84
2023/05/09 02:51:59;;;;;;;65.90;35.10;;;14.70;99.90;;;;;;5024516;28;20033;-84
2023/05/09 02:54:25;;;;;;;71.63;35.60;;;14.70;99.90;;;;;;5016131;28;20488;-85
2023/05/09 02:56:50;;;;;;;63.85;35.03;;;14.70;99.90;;;;;;5021381;28;20051;-85
2023/05/09 02:59:18;;;;;;;69.38;35.00;;;14.70;99.90;;;;;;5032736;28;20306;-85
2023/05/09 03:01:43;;;;;;;59.75;34.67;;;14.70;99.90;;;;;;5020771;28;20382;-84
2023/05/09 03:04:09;;;;;;;58.45;34.05;;;14.80;99.90;;;;;;5024603;28;20921;-84
2023/05/09 03:06:35;;;;;;;110.18;39.78;;;14.70;99.90;;;;;;5034597;28;20130;-84
2023/05/09 03:09:01;;;;;;;75.65;38.28;;;14.70;99.90;;;;;;5033586;28;20047;-84
2023/05/09 03:11:27;;;;;;;62.47;34.70;;;14.70;99.90;;;;;;5023034;28;20041;-84
2023/05/09 03:13:52;;;;;;;55.85;32.53;;;14.80;99.90;;;;;;5034940;28;20552;-85
2023/05/09 03:16:19;;;;;;;85.32;39.95;;;14.80;99.90;;;;;;5035178;28;20391;-85
2023/05/09 03:18:45;;;;;;;97.32;40.70;;;14.80;99.90;;;;;;5034191;28;20034;-84
2023/05/09 03:21:11;;;;;;;72.43;37.53;;;14.80;99.90;;;;;;5022503;28;20066;-84
2023/05/09 03:23:37;;;;;;;65.95;34.80;;;14.80;99.90;;;;;;5020166;28;20457;-84
2023/05/09 03:26:03;;;;;;;70.80;36.05;;;14.80;99.90;;;;;;5031483;28;20064;-84
2023/05/09 03:28:29;;;;;;;77.97;37.10;;;14.80;99.90;;;;;;5022202;28;20045;-85
2023/05/09 03:30:55;;;;;;;59.05;33.72;;;14.80;99.90;;;;;;5020011;28;20078;-85
2023/05/09 03:33:20;;;;;;;65.28;36.47;;;14.80;99.90;;;;;;5031773;28;20029;-84
2023/05/09 03:35:46;;;;;;;76.15;36.63;;;14.80;99.90;;;;;;5020974;28;20029;-85
2023/05/09 03:38:12;;;;;;;71.55;36.95;;;14.80;99.90;;;;;;5020102;28;20054;-85
2023/05/09 03:40:37;;;;;;;65.07;33.88;;;14.80;99.90;;;;;;5020285;28;20395;-85
2023/05/09 03:43:06;;;;;;;63.40;33.33;;;14.80;99.90;;;;;;5033809;28;20060;-85
2023/05/09 03:45:32;;;;;;;63.95;33.78;;;14.80;99.90;;;;;;5034143;28;20530;-85
2023/05/09 03:47:58;;;;;;;62.90;33.10;;;14.80;99.90;;;;;;5022651;28;20037;-85
2023/05/09 03:50:23;;;;;;;62.15;34.05;;;14.80;99.90;;;;;;5023681;28;20112;-85
2023/05/09 03:52:54;;;;;;;71.25;34.45;;;14.80;99.90;;;;;;5020514;28;20043;-85
2023/05/09 03:55:19;;;;;;;68.95;35.58;;;14.80;99.90;;;;;;5021822;28;20037;-85
2023/05/09 03:57:45;;;;;;;76.30;37.30;;;14.80;99.90;;;;;;5016584;28;20235;-85
2023/05/09 04:00:11;;;;;;;82.60;37.47;;;14.90;99.90;;;;;;5022829;28;20412;-85
2023/05/09 04:02:37;;;;;;;79.18;37.50;;;14.90;99.90;;;;;;5023125;28;20033;-84
2023/05/09 04:05:02;;;;;;;66.63;36.53;;;14.90;99.90;;;;;;5020284;28;20237;-85
2023/05/09 04:07:28;;;;;;;83.47;38.63;;;14.90;99.90;;;;;;5034687;28;20049;-85
2023/05/09 04:09:57;;;;;;;69.57;35.42;;;14.90;99.90;;;;;;5020450;28;20120;-85
2023/05/09 04:12:25;;;;;;;75.57;36.47;;;14.90;99.90;;;;;;5012478;28;20087;-85
2023/05/09 04:14:51;;;;;;;75.03;37.08;;;14.90;99.90;;;;;;5019334;28;20048;-85
2023/05/09 04:17:17;;;;;;;72.43;37.85;;;15.00;99.90;;;;;;5021656;28;20045;-85
2023/05/09 04:19:43;;;;;;;68.35;37.58;;;14.90;99.90;;;;;;5033708;28;20464;-85
2023/05/09 04:22:08;;;;;;;81.15;38.38;;;15.00;99.90;;;;;;5016386;28;20216;-85
2023/05/09 04:24:34;;;;;;;89.32;41.33;;;15.00;99.90;;;;;;5017516;28;20083;-85
2023/05/09 04:27:00;;;;;;;85.13;41.40;;;15.10;99.90;;;;;;5032696;28;20051;-85
2023/05/09 04:29:26;;;;;;;82.15;41.63;;;15.10;99.90;;;;;;5020952;28;20045;-85
2023/05/09 04:31:53;;;;;;;82.55;41.70;;;15.10;99.90;;;;;;5013795;28;20080;-84
2023/05/09 04:34:18;;;;;;;86.85;41.50;;;15.20;99.90;;;;;;5019747;28;20499;-85
2023/05/09 04:36:44;;;;;;;87.25;42.22;;;15.20;99.90;;;;;;5030545;28;20500;-85
2023/05/09 04:39:10;;;;;;;92.63;41.67;;;15.20;99.90;;;;;;5031094;28;20136;-85
2023/05/09 04:41:35;;;;;;;76.80;41.53;;;15.20;99.90;;;;;;5031316;28;20071;-85
2023/05/09 04:44:02;;;;;;;81.18;40.30;;;15.30;99.90;;;;;;5020440;28;20500;-85
2023/05/09 04:46:27;;;;;;;73.35;39.28;;;15.30;99.90;;;;;;5022804;28;20045;-85
2023/05/09 04:48:53;;;;;;;69.97;38.83;;;15.40;99.90;;;;;;5021222;28;20155;-85
2023/05/09 04:51:21;;;;;;;74.78;39.63;;;15.40;99.90;;;;;;5022702;28;20044;-84
2023/05/09 04:53:47;;;;;;;68.57;39.55;;;15.50;99.90;;;;;;5017533;28;20036;-85
2023/05/09 04:56:12;;;;;;;66.95;38.38;;;15.50;99.90;;;;;;5033415;28;20033;-85
2023/05/09 04:58:38;;;;;;;67.95;38.90;;;15.50;99.90;;;;;;5017854;28;20459;-85
2023/05/09 05:01:04;;;;;;;71.70;39.20;;;15.60;99.90;;;;;;5020478;28;20043;-85
2023/05/09 05:03:33;;;;;;;70.95;39.38;;;15.60;99.90;;;;;;5031303;28;20059;-85
2023/05/09 05:06:02;;;;;;;68.57;39.67;;;15.70;99.90;;;;;;5018741;28;20064;-85
2023/05/09 05:08:27;;;;;;;61.88;37.70;;;15.80;99.90;;;;;;5031603;28;20057;-85
2023/05/09 05:10:53;;;;;;;64.18;38.95;;;15.70;99.90;;;;;;5016584;28;20033;-85
2023/05/09 05:13:20;;;;;;;67.20;38.80;;;15.80;99.90;;;;;;5015610;28;20045;-85
2023/05/09 05:15:45;;;;;;;62.33;37.75;;;15.80;99.90;;;;;;5020340;28;20122;-85
2023/05/09 05:18:11;;;;;;;71.50;38.65;;;15.90;99.90;;;;;;5013129;28;20511;-85
2023/05/09 05:20:40;;;;;;;63.58;37.10;;;15.90;99.90;;;;;;5019371;28;20396;-85
2023/05/09 05:23:05;;;;;;;58.95;35.33;;;15.90;99.90;;;;;;5032050;28;20656;-84
2023/05/09 05:25:31;;;;;;;55.83;35.88;;;15.90;99.90;;;;;;5027177;28;20232;-85
2023/05/09 05:27:56;;;;;;;56.95;35.28;;;16.00;99.90;;;;;;5013641;28;20200;-85
2023/05/09 05:30:22;;;;;;;53.28;35.50;;;16.00;99.90;;;;;;5020216;28;20048;-85
2023/05/09 05:32:48;;;;;;;54.42;36.65;;;15.90;99.90;;;;;;5011267;28;20045;-85
2023/05/09 05:35:13;;;;;;;56.03;37.42;;;16.00;99.90;;;;;;5015565;28;20045;-85
2023/05/09 05:37:40;;;;;;;61.53;38.30;;;15.90;99.90;;;;;;5019171;28;20053;-85
2023/05/09 05:40:06;;;;;;;52.88;34.97;;;15.90;99.90;;;;;;5047949;28;20048;-85
2023/05/09 05:42:35;;;;;;;58.05;36.70;;;16.00;99.90;;;;;;5016153;28;20049;-84
2023/05/09 05:45:03;;;;;;;59.20;36.90;;;16.00;99.90;;;;;;5019406;28;20606;-85
2023/05/09 05:47:34;;;;;;;59.45;36.20;;;16.00;99.90;;;;;;5015480;28;20433;-85
2023/05/09 05:50:00;;;;;;;64.18;39.90;;;16.10;99.90;;;;;;5031394;28;20451;-85
2023/05/09 05:52:26;;;;;;;69.32;39.83;;;16.10;99.90;;;;;;5031507;28;20124;-84
2023/05/09 05:54:52;;;;;;;63.25;38.90;;;16.20;99.90;;;;;;5030469;28;20128;-85
2023/05/09 05:57:18;;;;;;;63.88;38.33;;;16.20;99.90;;;;;;5021655;28;20118;-85
2023/05/09 05:59:49;;;;;;;60.35;39.65;;;16.20;99.90;;;;;;5019172;28;20044;-84
2023/05/09 06:02:16;;;;;;;56.90;36.72;;;16.30;99.90;;;;;;5017461;28;20113;-84
2023/05/09 06:04:42;;;;;;;49.20;34.67;;;16.30;99.90;;;;;;5023101;28;20040;-85
2023/05/09 06:07:09;;;;;;;40.95;29.42;;;16.20;99.90;;;;;;5016233;28;20442;-85
2023/05/09 06:09:34;;;;;;;37.72;27.75;;;16.30;99.90;;;;;;5027618;28;20037;-85
2023/05/09 06:12:00;;;;;;;40.65;29.20;;;16.30;99.90;;;;;;5031442;28;20094;-85
2023/05/09 06:14:26;;;;;;;35.60;26.70;;;16.40;99.90;;;;;;5018210;28;20039;-84
2023/05/09 06:16:52;;;;;;;33.08;25.98;;;16.50;99.90;;;;;;5017333;28;20040;-85
2023/05/09 06:19:18;;;;;;;37.60;27.58;;;16.40;99.90;;;;;;5037289;28;20082;-85
2023/05/09 06:21:44;;;;;;;32.35;25.20;;;16.50;99.90;;;;;;5024774;28;20045;-85
2023/05/09 06:24:09;;;;;;;36.10;26.20;;;16.60;99.90;;;;;;5034776;28;20055;-85
2023/05/09 06:26:35;;;;;;;33.25;25.40;;;16.60;99.90;;;;;;5035340;28;20060;-85
2023/05/09 06:29:02;;;;;;;32.95;25.45;;;16.40;99.90;;;;;;5023668;28;20072;-84
2023/05/09 06:31:28;;;;;;;33.30;24.92;;;16.40;99.90;;;;;;5017753;28;20041;-85
2023/05/09 06:33:54;;;;;;;37.85;24.33;;;16.50;99.90;;;;;;5022999;28;20083;-85
2023/05/09 06:36:19;;;;;;;36.67;24.63;;;16.50;99.90;;;;;;5024841;28;20068;-85
2023/05/09 06:38:45;;;;;;;35.40;24.30;;;16.50;99.90;;;;;;5021020;28;20141;-85
2023/05/09 06:41:14;;;;;;;37.28;25.40;;;16.50;99.90;;;;;;5023213;28;20043;-84
2023/05/09 06:43:39;;;;;;;40.17;27.05;;;16.40;99.90;;;;;;5048214;28;20041;-85
2023/05/09 06:46:05;;;;;;;40.22;26.33;;;16.60;99.90;;;;;;5036371;28;20041;-85
2023/05/09 06:48:31;;;;;;;40.10;26.33;;;16.60;99.90;;;;;;5023344;28;20468;-85
2023/05/09 06:50:56;;;;;;;41.80;27.23;;;16.60;99.90;;;;;;5023948;28;20046;-85
2023/05/09 06:53:22;;;;;;;44.03;26.77;;;16.60;99.90;;;;;;5031891;28;20191;-85
2023/05/09 06:55:47;;;;;;;41.88;27.67;;;16.60;99.90;;;;;;5026588;28;20491;-85
2023/05/09 06:58:13;;;;;;;51.35;29.77;;;16.50;99.90;;;;;;5032172;28;20034;-85
2023/05/09 07:00:42;;;;;;;48.10;29.80;;;16.50;99.90;;;;;;5030849;28;20081;-85
2023/05/09 07:03:08;;;;;;;44.45;29.27;;;16.40;99.90;;;;;;5016222;28;20148;-85
2023/05/09 07:05:33;;;;;;;50.38;31.13;;;16.50;99.90;;;;;;5020290;28;20128;-85
2023/05/09 07:07:59;;;;;;;45.35;29.52;;;16.50;99.90;;;;;;5022507;28;20523;-85
2023/05/09 07:10:25;;;;;;;45.60;29.70;;;16.60;99.90;;;;;;5032748;28;20102;-85
2023/05/09 07:12:51;;;;;;;55.30;31.50;;;16.60;99.90;;;;;;5017435;28;20033;-86
2023/05/09 07:15:16;;;;;;;47.78;30.77;;;16.60;99.90;;;;;;5017839;28;20037;-85
2023/05/09 07:17:42;;;;;;;60.50;33.08;;;16.70;99.90;;;;;;5018350;28;20048;-85
2023/05/09 07:20:08;;;;;;;55.15;32.00;;;16.60;99.90;;;;;;5036310;28;20464;-85
2023/05/09 07:22:36;;;;;;;57.65;32.80;;;16.60;99.90;;;;;;5023283;28;20563;-85
2023/05/09 07:25:02;;;;;;;55.40;32.58;;;16.70;99.90;;;;;;5021004;28;20060;-85
2023/05/09 07:27:28;;;;;;;61.22;33.85;;;16.70;99.90;;;;;;5022380;28;20041;-86
2023/05/09 07:29:53;;;;;;;53.85;32.85;;;16.90;99.90;;;;;;5029732;28;20503;-85
2023/05/09 07:32:19;;;;;;;64.75;34.38;;;16.90;99.90;;;;;;5022602;28;20068;-86
2023/05/09 07:34:45;;;;;;;53.88;32.17;;;17.00;99.90;;;;;;5022879;28;20036;-85
2023/05/09 07:37:11;;;;;;;54.75;33.92;;;17.00;99.90;;;;;;5031720;28;20424;-85
2023/05/09 07:39:37;;;;;;;56.40;33.40;;;17.00;99.90;;;;;;5031851;28;20045;-85
2023/05/09 07:42:02;;;;;;;47.50;32.45;;;17.00;99.90;;;;;;5018707;28;20051;-85
2023/05/09 07:44:28;;;;;;;49.83;31.80;;;17.00;99.90;;;;;;5016520;28;20041;-86
2023/05/09 07:46:54;;;;;;;49.75;32.30;;;17.10;99.90;;;;;;5022923;28;20986;-85
2023/05/09 07:49:20;;;;;;;55.38;34.45;;;17.10;99.90;;;;;;5022317;28;20083;-85
2023/05/09 07:51:48;;;;;;;52.00;33.55;;;17.10;99.90;;;;;;5036503;28;20490;-86
2023/05/09 07:54:14;;;;;;;55.42;34.25;;;17.20;99.90;;;;;;5014235;28;20055;-85
2023/05/09 07:56:40;;;;;;;62.88;36.50;;;17.10;99.90;;;;;;5031844;28;20504;-85
2023/05/09 07:59:05;;;;;;;54.22;33.53;;;17.00;99.90;;;;;;5019036;28;20044;-85
2023/05/09 08:01:31;;;;;;;54.70;33.92;;;17.20;99.90;;;;;;5021807;28;20049;-85
2023/05/09 08:03:56;;;;;;;54.95;33.35;;;17.20;99.90;;;;;;5034566;28;20051;-85
2023/05/09 08:06:22;;;;;;;49.30;34.05;;;17.30;99.90;;;;;;5031030;28;20037;-86
2023/05/09 08:08:48;;;;;;;55.40;34.30;;;17.40;99.90;;;;;;5017572;28;20132;-85
2023/05/09 08:11:13;;;;;;;53.60;34.03;;;17.40;99.90;;;;;;5020980;28;20510;-85
2023/05/09 08:13:39;;;;;;;50.90;33.03;;;17.40;99.90;;;;;;5035524;28;20038;-86
2023/05/09 08:16:05;;;;;;;51.83;33.50;;;17.50;99.90;;;;;;5020439;28;20056;-85
2023/05/09 08:18:34;;;;;;;51.72;33.10;;;17.60;99.90;;;;;;5029734;28;20047;-85
2023/05/09 08:21:00;;;;;;;53.17;33.25;;;17.70;99.90;;;;;;5019678;28;20464;-85
2023/05/09 08:23:25;;;;;;;50.97;32.40;;;17.70;99.90;;;;;;5017973;28;20084;-86
2023/05/09 08:25:55;;;;;;;54.45;33.58;;;17.90;99.90;;;;;;5021709;28;20060;-85
2023/05/09 08:28:22;;;;;;;52.40;32.92;;;17.70;99.90;;;;;;5036506;28;20422;-86
2023/05/09 08:30:50;;;;;;;48.55;32.05;;;17.80;99.90;;;;;;5032715;28;20658;-85
2023/05/09 08:33:16;;;;;;;52.65;32.47;;;17.80;99.90;;;;;;5016043;28;20537;-85
2023/05/09 08:35:41;;;;;;;53.70;33.00;;;17.70;99.90;;;;;;5022896;28;20071;-85
2023/05/09 08:38:07;;;;;;;49.50;31.15;;;17.60;99.90;;;;;;5018024;28;20083;-85
2023/05/09 08:40:36;;;;;;;51.63;32.20;;;18.00;99.90;;;;;;5018779;28;20106;-86
2023/05/09 08:43:05;;;;;;;50.80;32.45;;;18.10;99.90;;;;;;5027555;28;20045;-85
2023/05/09 08:45:45;;;;;;;53.78;33.28;;;18.20;99.90;;;;;;5015897;28;20302;-86
2023/05/09 08:48:11;;;;;;;51.88;32.17;;;18.20;99.90;;;;;;5021726;28;20048;-85
2023/05/09 08:50:37;;;;;;;52.00;32.95;;;18.20;99.90;;;;;;5032274;28;20041;-85
2023/05/09 08:53:03;;;;;;;49.63;32.10;;;18.20;99.90;;;;;;5033553;28;20491;-85
2023/05/09 08:55:29;;;;;;;51.75;32.88;;;18.20;99.90;;;;;;5020342;28;20037;-86
2023/05/09 08:57:55;;;;;;;53.50;32.58;;;18.50;99.90;;;;;;5017382;28;20037;-85
2023/05/09 09:00:21;;;;;;;52.05;31.98;;;18.60;99.90;;;;;;5021695;28;20045;-85
2023/05/09 09:02:47;;;;;;;52.33;31.48;;;18.80;99.90;;;;;;5017781;28;20040;-85
2023/05/09 09:05:13;;;;;;;49.80;31.35;;;18.90;99.90;;;;;;5018422;28;20119;-85
2023/05/09 09:07:40;;;;;;;48.45;31.38;;;18.80;99.90;;;;;;5016838;28;20452;-84
2023/05/09 09:10:07;;;;;;;44.38;29.73;;;18.40;99.90;;;;;;5013825;28;20507;-85
2023/05/09 09:12:34;;;;;;;48.45;29.05;;;18.60;99.90;;;;;;5020039;28;20396;-85
2023/05/09 09:15:04;;;;;;;44.60;29.45;;;18.60;99.90;;;;;;5030932;28;20502;-86
2023/05/09 09:17:31;;;;;;;45.00;29.13;;;18.70;99.90;;;;;;5035013;28;20418;-85
2023/05/09 09:20:00;;;;;;;45.00;28.58;;;18.90;99.90;;;;;;5035195;28;20042;-85
2023/05/09 09:22:32;;;;;;;46.38;28.83;;;19.00;99.90;;;;;;5015847;28;20073;-85
2023/05/09 09:25:00;;;;;;;44.05;28.45;;;19.20;99.90;;;;;;5012381;28;20129;-85
2023/05/09 09:27:26;;;;;;;40.80;27.90;;;19.20;99.90;;;;;;5032919;28;20469;-85
2023/05/09 09:29:52;;;;;;;40.25;27.52;;;19.30;99.90;;;;;;5011635;28;20512;-85
2023/05/09 09:32:18;;;;;;;45.45;27.38;;;19.10;99.90;;;;;;5016113;28;20060;-85
2023/05/09 09:34:48;;;;;;;41.65;26.23;;;19.00;99.90;;;;;;5018919;28;20400;-85
2023/05/09 09:37:22;;;;;;;39.28;25.75;;;19.10;99.90;;;;;;5026124;28;20037;-85
2023/05/09 09:39:55;;;;;;;43.03;27.30;;;19.10;99.90;;;;;;5031170;28;20116;-85
2023/05/09 09:42:22;;;;;;;37.65;26.30;;;18.70;99.90;;;;;;5014493;28;20041;-85
2023/05/09 09:45:09;;;;;;;38.90;26.50;;;19.20;99.90;;;;;;5021792;28;20041;-85
2023/05/09 09:47:38;;;;;;;43.20;25.27;;;19.10;99.90;;;;;;5015705;28;20588;-85
2023/05/09 09:50:17;;;;;;;41.05;26.67;;;19.20;99.90;;;;;;5021339;28;20047;-85
2023/05/09 09:52:54;;;;;;;37.10;24.33;;;19.50;99.90;;;;;;5022110;28;20160;-84
2023/05/09 09:55:22;;;;;;;37.22;24.38;;;19.50;99.90;;;;;;5020493;28;20037;-86
2023/05/09 09:57:49;;;;;;;39.10;24.23;;;19.20;99.90;;;;;;5025634;28;20064;-85
2023/05/09 10:00:23;;;;;;;37.47;22.85;;;19.10;99.90;;;;;;5023176;28;20212;-85
2023/05/09 10:02:54;;;;;;;34.92;24.58;;;18.80;99.90;;;;;;5020903;28;20557;-85
2023/05/09 10:05:24;;;;;;;36.25;23.60;;;18.60;99.90;;;;;;5020967;28;20029;-85
2023/05/09 10:07:55;;;;;;;32.90;23.35;;;19.00;99.90;;;;;;5020755;28;20033;-85
2023/05/09 10:10:21;;;;;;;33.53;22.95;;;19.20;99.90;;;;;;5033763;28;20044;-85
2023/05/09 10:12:49;;;;;;;29.45;22.42;;;19.30;99.90;;;;;;5019393;28;20048;-85
2023/05/09 10:15:19;;;;;;;29.25;21.30;;;19.70;99.90;;;;;;5024581;28;20548;-86
2023/05/09 10:17:44;;;;;;;29.90;21.20;;;20.20;99.90;;;;;;5019699;28;20037;-85
2023/05/09 10:20:12;;;;;;;29.52;21.55;;;20.40;99.90;;;;;;5025413;28;20431;-85
2023/05/09 10:22:39;;;;;;;30.40;22.23;;;20.50;99.90;;;;;;5022701;28;20127;-85
2023/05/09 10:25:12;;;;;;;27.95;21.02;;;20.50;99.90;;;;;;5014751;28;20045;-86
2023/05/09 10:27:40;;;;;;;28.65;20.85;;;20.50;99.90;;;;;;5018947;28;20037;-85
2023/05/09 10:30:12;;;;;;;28.40;20.65;;;20.30;99.90;;;;;;5020280;28;20041;-85
2023/05/09 10:32:40;;;;;;;33.90;20.00;;;20.30;99.90;;;;;;5040202;28;20526;-86
2023/05/09 10:35:09;;;;;;;31.52;20.42;;;20.20;99.90;;;;;;5037085;28;20511;-85
2023/05/09 10:37:36;;;;;;;31.30;20.55;;;20.00;99.90;;;;;;5022967;28;20399;-86
2023/05/09 10:40:03;;;;;;;30.13;20.88;;;19.80;99.90;;;;;;5021164;28;20140;-86
2023/05/09 10:42:30;;;;;;;27.70;21.17;;;19.90;99.90;;;;;;5020986;28;20049;-85
2023/05/09 10:44:56;;;;;;;28.75;20.83;;;20.30;99.90;;;;;;5030695;28;20496;-85
2023/05/09 10:47:26;;;;;;;30.98;20.55;;;20.50;99.90;;;;;;5037015;28;20116;-86
2023/05/09 10:49:53;;;;;;;26.40;19.08;;;20.30;99.90;;;;;;5036198;28;20491;-86
2023/05/09 10:52:21;;;;;;;26.08;18.40;;;20.00;99.90;;;;;;5018511;28;20045;-85
2023/05/09 10:55:00;;;;;;;28.80;20.38;;;20.10;99.90;;;;;;5033662;28;20037;-86
2023/05/09 10:57:28;;;;;;;27.73;19.92;;;20.30;99.90;;;;;;5022431;28;20041;-85
2023/05/09 10:59:55;;;;;;;25.52;18.75;;;20.10;99.90;;;;;;5021175;28;20507;-85
2023/05/09 11:02:27;;;;;;;24.83;19.55;;;20.20;99.90;;;;;;5031915;28;20483;-86
2023/05/09 11:05:13;;;;;;;27.40;20.13;;;20.40;99.90;;;;;;5023198;28;20086;-86
2023/05/09 11:07:38;;;;;;;;;;;20.10;99.90;;;;;;5016537;28;20140;-86
2023/05/09 11:10:18;;;;;;;28.65;20.85;;;20.20;99.90;;;;;;5030286;28;19975;-85
2023/05/09 11:12:58;;;;;;;25.90;19.63;;;20.40;99.90;;;;;;5015974;28;20128;-86
2023/05/09 11:15:26;;;;;;;27.50;19.48;;;20.30;99.90;;;;;;5034669;28;20056;-86
2023/05/09 11:18:12;;;;;;;26.67;19.38;;;20.20;99.90;;;;;;5038529;28;20041;-86
2023/05/09 11:20:47;;;;;;;27.38;19.85;;;20.10;99.90;;;;;;5036764;28;20045;-86
2023/05/09 11:23:16;;;;;;;25.90;18.88;;;20.50;99.90;;;;;;5016806;28;20049;-86
2023/05/09 11:25:45;;;;;;;24.90;19.30;;;20.60;99.90;;;;;;5017354;28;20041;-86
2023/05/09 11:28:32;;;;;;;23.60;18.45;;;20.30;99.90;;;;;;5035829;28;20055;-85
2023/05/09 11:31:17;;;;;;;24.45;18.42;;;20.40;99.90;;;;;;5036533;28;20123;-85
2023/05/09 11:33:47;;;;;;;24.83;17.50;;;20.30;99.90;;;;;;5021972;28;20029;-85
2023/05/09 11:36:28;;;;;;;22.38;17.83;;;20.50;99.90;;;;;;5021388;28;20090;-85
2023/05/09 11:39:06;;;;;;;21.92;17.48;;;20.40;99.90;;;;;;5013150;28;20056;-86
2023/05/09 11:41:44;;;;;;;22.60;16.45;;;20.80;99.90;;;;;;5019339;28;20156;-86
2023/05/09 11:44:17;;;;;;;25.00;17.55;;;20.80;99.90;;;;;;5015872;28;20059;-86
2023/05/09 11:46:43;;;;;;;23.58;17.02;;;20.80;99.90;;;;;;5023027;28;20033;-86
2023/05/09 11:49:09;;;;;;;21.55;17.40;;;21.10;99.90;;;;;;5032611;28;20454;-85
2023/05/09 11:51:38;;;;;;;22.58;17.15;;;21.20;99.90;;;;;;5017801;28;20044;-86
2023/05/09 11:54:06;;;;;;;22.20;16.80;;;21.30;99.90;;;;;;5014113;28;20068;-87
2023/05/09 11:56:33;;;;;;;22.95;16.27;;;21.40;99.90;;;;;;5021259;28;20128;-85
2023/05/09 11:58:58;;;;;;;19.67;16.20;;;21.30;99.90;;;;;;5021508;28;20041;-85
2023/05/09 12:01:24;;;;;;;19.42;15.73;;;21.50;99.90;;;;;;5019215;28;20078;-86
2023/05/09 12:03:50;;;;;;;19.50;15.18;;;21.60;99.90;;;;;;5017922;28;20037;-86
2023/05/09 12:06:17;;;;;;;18.25;14.80;;;21.40;99.90;;;;;;5020977;28;20042;-85
2023/05/09 12:08:44;;;;;;;17.23;14.13;;;21.50;99.90;;;;;;5032306;28;20041;-86
2023/05/09 12:11:10;;;;;;;19.38;14.45;;;21.50;99.90;;;;;;5032505;28;20033;-85
2023/05/09 12:13:47;;;;;;;16.75;12.45;;;21.80;99.90;;;;;;5021567;28;20041;-86
2023/05/09 12:16:14;;;;;;;11.40;9.35;;;21.80;99.90;;;;;;5029641;28;20029;-86
2023/05/09 12:18:48;;;;;;;12.48;9.25;;;21.60;99.90;;;;;;5021925;28;20029;-86
2023/05/09 12:21:15;;;;;;;12.10;9.57;;;21.60;99.90;;;;;;5023406;28;20067;-86
2023/05/09 12:23:40;;;;;;;10.20;8.15;;;21.80;99.90;;;;;;5015382;28;20125;-86
2023/05/09 12:26:06;;;;;;;11.32;8.90;;;21.80;99.90;;;;;;5032597;28;20095;-85
2023/05/09 12:28:33;;;;;;;13.68;9.10;;;22.10;99.90;;;;;;5017957;28;20103;-86
2023/05/09 12:30:59;;;;;;;11.70;9.63;;;21.80;99.90;;;;;;5032011;28;20112;-85
2023/05/09 12:33:25;;;;;;;9.50;8.38;;;21.80;99.90;;;;;;5020759;28;20159;-85